Terminal Aerodrome Forecast
Issued by NWS

Home | Current Version | Previous Version | Text Only | Print | Product List | Glossary On
Versions: 1 2 3 4 5 6 7 8 9 10 11 12 13 14 15 16 17 18 19 20 21 22 23 24 25 26 27 28 29
000
FTAK31 PANC 300550 AAA
TAFAHO
TAF AMD
PAHO 300550Z 3006/3106 04007KT P6SM -SN SCT035 BKN050
      TEMPO 3006/3010 2SM -SN OVC025
     FM301900 04007KT P6SM SCT080 BKN120=

USA.gov is the U.S. government's official web portal to all federal, state and local government web resources and services.